Time;durP1;ratioP1;P1;durP2;ratioP2;P2;SDS_P1;SDS_P2;PMS_P1;PMS_P2;Temp;Humidity;BMP_temperature;BMP_pressure;BME280_temperature;BME280_humidity;BME280_pressure;Samples;Min_cycle;Max_cycle;Signal;HPM_P1;HPM_P2
2022/03/17 00:01:26;;;;;;;;;;;24.60;43.30;;;;;;1543927;75;781;-66
2022/03/17 00:03:27;;;;;;;;;;;24.60;43.20;;;;;;1548563;75;816;-65
2022/03/17 00:05:29;;;;;;;;;;;24.60;43.30;;;;;;1548730;75;720;-67
2022/03/17 00:07:31;;;;;;;;;;;24.60;43.30;;;;;;1548711;75;766;-65
2022/03/17 00:09:33;;;;;;;;;;;24.60;43.30;;;;;;1554647;75;1158;-66
2022/03/17 00:11:35;;;;;;;;;;;24.60;43.30;;;;;;1551271;75;699;-66
2022/03/17 00:13:37;;;;;;;;;;;24.60;43.40;;;;;;1559998;75;683;-66
2022/03/17 00:15:40;;;;;;;;;;;24.60;43.40;;;;;;1551361;75;1935;-68
2022/03/17 00:17:42;;;;;;;;;;;24.50;43.40;;;;;;1542864;75;782;-65
2022/03/17 00:19:45;;;;;;;;;;;24.60;43.40;;;;;;1553028;74;1139;-65
2022/03/17 00:21:47;;;;;;;;;;;24.50;43.40;;;;;;1555679;75;753;-67
2022/03/17 00:23:50;;;;;;;;;;;24.60;43.40;;;;;;1546670;75;765;-69
2022/03/17 00:25:52;;;;;;;;;;;24.60;43.50;;;;;;1549337;75;729;-65
2022/03/17 00:27:54;;;;;;;;;;;24.60;43.50;;;;;;1547457;75;772;-67
2022/03/17 00:29:57;;;;;;;;;;;24.60;43.50;;;;;;1529917;75;1126;-66
2022/03/17 00:31:58;;;;;;;;;;;24.60;43.50;;;;;;1548638;75;724;-65
2022/03/17 00:34:00;;;;;;;;;;;24.60;43.40;;;;;;1548815;75;794;-65
2022/03/17 00:36:02;;;;;;;;;;;24.60;43.50;;;;;;1552637;75;1981;-66
2022/03/17 00:38:05;;;;;;;;;;;24.60;43.50;;;;;;1548842;75;718;-66
2022/03/17 00:40:07;;;;;;;;;;;24.60;43.60;;;;;;1550334;75;1090;-67
2022/03/17 00:42:09;;;;;;;;;;;24.60;43.50;;;;;;1558557;75;762;-65
2022/03/17 00:44:11;;;;;;;;;;;24.60;43.60;;;;;;1548297;77;668;-66
2022/03/17 00:46:13;;;;;;;;;;;24.50;43.60;;;;;;1554588;74;886;-65
2022/03/17 00:48:15;;;;;;;;;;;24.50;43.60;;;;;;1549334;75;726;-66
2022/03/17 00:50:17;;;;;;;;;;;24.50;43.60;;;;;;1540442;75;1070;-65
2022/03/17 00:52:20;;;;;;;;;;;24.50;43.60;;;;;;1559659;75;724;-65
2022/03/17 00:54:22;;;;;;;;;;;24.50;43.60;;;;;;1547047;75;1927;-66
2022/03/17 00:56:24;;;;;;;;;;;24.50;43.60;;;;;;1546237;75;632;-65
2022/03/17 00:58:29;;;;;;;;;;;24.60;43.60;;;;;;1548248;75;1175;-64
2022/03/17 01:00:29;;;;;;;;;;;24.50;43.70;;;;;;1548279;75;1614;-65
2022/03/17 01:02:31;;;;;;;;;;;24.50;43.70;;;;;;1542918;75;695;-65
2022/03/17 01:04:33;;;;;;;;;;;24.50;43.70;;;;;;1550704;75;810;-65
2022/03/17 01:06:35;;;;;;;;;;;24.50;43.70;;;;;;1567419;75;797;-66
2022/03/17 01:08:37;;;;;;;;;;;24.50;43.70;;;;;;1548338;75;1140;-66
2022/03/17 01:10:42;;;;;;;;;;;24.50;43.70;;;;;;1540540;77;751;-69
2022/03/17 01:12:44;;;;;;;;;;;24.60;43.70;;;;;;1546487;75;1720;-65
2022/03/17 01:14:47;;;;;;;;;;;24.60;43.80;;;;;;1548256;77;1909;-67
2022/03/17 01:16:50;;;;;;;;;;;24.60;43.70;;;;;;1543528;75;714;-65
2022/03/17 01:18:52;;;;;;;;;;;24.70;43.90;;;;;;1550784;75;1132;-65
2022/03/17 01:20:54;;;;;;;;;;;24.60;43.70;;;;;;1558520;75;828;-65
2022/03/17 01:22:56;;;;;;;;;;;24.50;43.70;;;;;;1539528;77;763;-66
2022/03/17 01:24:58;;;;;;;;;;;24.50;43.70;;;;;;1558234;75;823;-65
2022/03/17 01:26:59;;;;;;;;;;;24.60;43.70;;;;;;1549825;75;710;-65
2022/03/17 01:29:01;;;;;;;;;;;24.60;43.70;;;;;;1544444;75;1117;-67
2022/03/17 01:31:03;;;;;;;;;;;24.50;43.70;;;;;;1543688;75;716;-65
2022/03/17 01:33:05;;;;;;;;;;;24.50;43.70;;;;;;1545496;76;759;-65
2022/03/17 01:35:07;;;;;;;;;;;24.50;43.70;;;;;;1541558;77;1940;-65
2022/03/17 01:37:09;;;;;;;;;;;24.50;43.70;;;;;;1551071;75;790;-65
2022/03/17 01:39:11;;;;;;;;;;;24.50;43.80;;;;;;1549621;75;1123;-66
2022/03/17 01:41:14;;;;;;;;;;;24.50;43.70;;;;;;1557370;75;762;-68
2022/03/17 01:43:16;;;;;;;;;;;24.50;43.80;;;;;;1550096;75;742;-66
2022/03/17 01:45:17;;;;;;;;;;;24.50;43.80;;;;;;1554221;75;769;-65
2022/03/17 01:47:28;;;;;;;;;;;24.50;43.90;;;;;;1547305;75;784;-66
2022/03/17 01:49:30;;;;;;;;;;;24.50;43.80;;;;;;1543835;75;1172;-65
2022/03/17 01:51:32;;;;;;;;;;;24.50;43.90;;;;;;1551962;75;657;-65
2022/03/17 01:53:34;;;;;;;;;;;24.50;43.80;;;;;;1551992;75;768;-66
2022/03/17 01:55:35;;;;;;;;;;;24.50;43.90;;;;;;1555604;75;1955;-66
2022/03/17 01:57:39;;;;;;;;;;;24.50;43.90;;;;;;1552358;75;805;-66
2022/03/17 01:59:41;;;;;;;;;;;24.50;43.90;;;;;;1554828;75;1125;-65
2022/03/17 02:01:42;;;;;;;;;;;24.50;43.90;;;;;;1548905;75;922;-66
2022/03/17 02:03:47;;;;;;;;;;;24.60;43.90;;;;;;1541259;75;708;-65
2022/03/17 02:05:50;;;;;;;;;;;24.60;43.90;;;;;;1548125;75;1258;-65
2022/03/17 02:07:52;;;;;;;;;;;24.50;43.80;;;;;;1548644;75;739;-66
2022/03/17 02:09:54;;;;;;;;;;;24.60;43.90;;;;;;1546957;75;1144;-66
2022/03/17 02:14:18;;;;;;;;;;;24.60;44.00;;;;;;1543215;75;1672;-68
2022/03/17 02:16:20;;;;;;;;;;;24.60;44.00;;;;;;1546675;77;1929;-65
2022/03/17 02:18:21;;;;;;;;;;;24.50;44.10;;;;;;1543568;75;806;-65
2022/03/17 02:20:24;;;;;;;;;;;24.50;44.00;;;;;;1548297;75;1089;-65
2022/03/17 02:22:27;;;;;;;;;;;24.50;44.00;;;;;;1549152;75;663;-65
2022/03/17 02:26:49;;;;;;;;;;;24.50;44.00;;;;;;1536319;75;1672;-65
2022/03/17 02:28:51;;;;;;;;;;;24.50;43.90;;;;;;1545046;75;1128;-66
2022/03/17 02:30:53;;;;;;;;;;;24.50;44.00;;;;;;1546632;75;793;-65
2022/03/17 02:32:59;;;;;;;;;;;24.50;44.00;;;;;;1542093;75;805;-64
2022/03/17 02:35:07;;;;;;;;;;;24.50;44.00;;;;;;1544406;75;1920;-64
2022/03/17 02:37:09;;;;;;;;;;;24.50;44.00;;;;;;1548054;75;1028;-64
2022/03/17 02:39:11;;;;;;;;;;;24.50;44.00;;;;;;1541996;75;1155;-64
2022/03/17 02:41:21;;;;;;;;;;;24.50;44.10;;;;;;1549761;75;797;-64
2022/03/17 02:43:16;;;;;;;;;;;24.60;44.10;;;;;;1551820;75;1709;-65
2022/03/17 02:45:18;;;;;;;;;;;24.50;44.10;;;;;;1551682;75;668;-65
2022/03/17 02:47:21;;;;;;;;;;;24.50;44.10;;;;;;1553687;75;733;-65
2022/03/17 02:49:23;;;;;;;;;;;24.50;44.10;;;;;;1543357;75;1152;-65
2022/03/17 02:51:25;;;;;;;;;;;24.50;44.10;;;;;;1554678;75;773;-64
2022/03/17 02:53:27;;;;;;;;;;;24.50;44.10;;;;;;1550474;75;786;-64
2022/03/17 02:55:29;;;;;;;;;;;24.50;44.10;;;;;;1546888;75;1935;-65
2022/03/17 02:57:31;;;;;;;;;;;24.50;44.10;;;;;;1537458;75;754;-65
2022/03/17 02:59:33;;;;;;;;;;;24.50;44.20;;;;;;1561759;74;1178;-65
2022/03/17 03:01:35;;;;;;;;;;;24.50;44.20;;;;;;1543454;75;783;-65
2022/03/17 03:03:36;;;;;;;;;;;24.50;44.10;;;;;;1542596;75;711;-65
2022/03/17 03:05:39;;;;;;;;;;;24.50;44.20;;;;;;1535650;77;797;-66
2022/03/17 03:07:41;;;;;;;;;;;24.50;44.20;;;;;;1549368;75;720;-67
2022/03/17 03:09:43;;;;;;;;;;;24.40;44.10;;;;;;1541081;75;1067;-67
2022/03/17 03:11:45;;;;;;;;;;;24.40;44.10;;;;;;1539071;75;774;-67
2022/03/17 03:13:47;;;;;;;;;;;24.40;44.10;;;;;;1549378;75;741;-66
2022/03/17 03:15:54;;;;;;;;;;;24.50;44.20;;;;;;1548721;77;1916;-65
2022/03/17 03:17:54;;;;;;;;;;;24.50;44.30;;;;;;1537281;75;949;-65
2022/03/17 03:19:57;;;;;;;;;;;24.40;44.20;;;;;;1548185;75;1122;-66
2022/03/17 03:21:59;;;;;;;;;;;24.40;44.20;;;;;;1548494;75;719;-66
2022/03/17 03:24:01;;;;;;;;;;;24.50;44.30;;;;;;1548512;75;770;-66
2022/03/17 03:26:03;;;;;;;;;;;24.50;44.20;;;;;;1548427;75;834;-66
2022/03/17 03:28:08;;;;;;;;;;;24.60;44.20;;;;;;1548673;75;962;-68
2022/03/17 03:30:11;;;;;;;;;;;24.50;44.30;;;;;;1548779;75;1134;-65
2022/03/17 03:32:13;;;;;;;;;;;24.50;44.30;;;;;;1559547;75;699;-67
2022/03/17 03:34:15;;;;;;;;;;;24.50;44.20;;;;;;1541415;75;779;-64
2022/03/17 03:38:44;;;;;;;;;;;24.70;44.20;;;;;;1548684;75;1146;-65
2022/03/17 03:40:44;;;;;;;;;;;24.80;44.00;;;;;;1575574;71;2118;-68
2022/03/17 03:42:46;;;;;;;;;;;24.80;43.90;;;;;;1586804;73;726;-71
2022/03/17 03:44:48;;;;;;;;;;;24.80;44.10;;;;;;1584682;74;620;-69
2022/03/17 03:46:50;;;;;;;;;;;24.70;44.40;;;;;;1592143;73;792;-69
2022/03/17 03:48:52;;;;;;;;;;;24.70;44.50;;;;;;1594321;73;1451;-67
2022/03/17 03:50:53;;;;;;;;;;;24.60;44.80;;;;;;1591113;75;721;-67
2022/03/17 03:52:55;;;;;;;;;;;24.50;45.00;;;;;;1591932;73;748;-67
2022/03/17 03:54:57;;;;;;;;;;;24.50;45.10;;;;;;1590520;74;702;-70
2022/03/17 03:56:59;;;;;;;;;;;24.40;45.20;;;;;;1590618;75;1936;-67
2022/03/17 03:59:07;;;;;;;;;;;24.40;45.20;;;;;;1590056;75;1179;-67
2022/03/17 04:01:07;;;;;;;;;;;24.40;45.30;;;;;;1586894;73;1242;-67
2022/03/17 04:03:09;;;;;;;;;;;24.40;45.30;;;;;;1600394;73;835;-68
2022/03/17 04:05:11;;;;;;;;;;;24.30;45.30;;;;;;1597527;73;659;-69
2022/03/17 04:07:13;;;;;;;;;;;24.30;45.40;;;;;;1594056;73;697;-66
2022/03/17 04:09:15;;;;;;;;;;;24.30;45.50;;;;;;1591805;74;1147;-66
2022/03/17 04:11:17;;;;;;;;;;;24.30;45.50;;;;;;1598575;73;717;-67
2022/03/17 04:13:19;;;;;;;;;;;24.30;45.50;;;;;;1580505;73;773;-64
2022/03/17 04:15:20;;;;;;;;;;;24.30;45.70;;;;;;1591863;74;717;-65
2022/03/17 04:17:23;;;;;;;;;;;24.40;46.00;;;;;;1591909;73;1932;-65
2022/03/17 04:19:25;;;;;;;;;;;24.40;46.00;;;;;;1587474;73;1143;-65
2022/03/17 04:21:27;;;;;;;;;;;24.40;45.90;;;;;;1594860;73;709;-65
2022/03/17 04:23:29;;;;;;;;;;;24.30;45.90;;;;;;1591865;74;791;-65
2022/03/17 04:25:31;;;;;;;;;;;24.30;45.90;;;;;;1600939;73;668;-65
2022/03/17 04:27:32;;;;;;;;;;;24.40;45.80;;;;;;1593719;73;587;-65
2022/03/17 04:29:34;;;;;;;;;;;24.40;45.80;;;;;;1584477;74;1123;-68
2022/03/17 04:31:38;;;;;;;;;;;24.40;45.80;;;;;;1591960;73;773;-67
2022/03/17 04:33:40;;;;;;;;;;;24.50;45.80;;;;;;1589471;73;1058;-64
2022/03/17 04:35:42;;;;;;;;;;;24.40;45.80;;;;;;1579209;75;1939;-66
2022/03/17 04:37:43;;;;;;;;;;;24.40;45.70;;;;;;1591939;73;690;-66
2022/03/17 04:39:45;;;;;;;;;;;24.40;45.50;;;;;;1591815;74;1141;-66
2022/03/17 04:41:48;;;;;;;;;;;24.40;45.50;;;;;;1591629;73;695;-68
2022/03/17 04:43:50;;;;;;;;;;;24.40;45.50;;;;;;1591803;75;681;-66
2022/03/17 04:45:52;;;;;;;;;;;24.40;45.50;;;;;;1591833;74;675;-66
2022/03/17 04:47:53;;;;;;;;;;;24.40;45.40;;;;;;1591895;73;724;-69
2022/03/17 04:49:55;;;;;;;;;;;24.40;45.50;;;;;;1581805;75;1256;-66
2022/03/17 04:51:57;;;;;;;;;;;24.50;45.70;;;;;;1589807;73;704;-67
2022/03/17 04:54:00;;;;;;;;;;;24.40;45.50;;;;;;1590535;74;782;-67
2022/03/17 04:56:03;;;;;;;;;;;24.40;45.60;;;;;;1591790;73;1925;-67
2022/03/17 04:58:06;;;;;;;;;;;24.50;45.70;;;;;;1591879;75;712;-66
2022/03/17 05:00:09;;;;;;;;;;;24.40;45.50;;;;;;1591767;75;1180;-67
2022/03/17 05:02:13;;;;;;;;;;;24.40;45.50;;;;;;1591863;73;709;-67
2022/03/17 05:04:14;;;;;;;;;;;24.50;45.50;;;;;;1590289;74;1251;-66
2022/03/17 05:06:16;;;;;;;;;;;24.50;45.70;;;;;;1591922;74;705;-66
2022/03/17 05:08:18;;;;;;;;;;;24.50;45.70;;;;;;1591934;75;737;-67
2022/03/17 05:10:20;;;;;;;;;;;24.40;45.50;;;;;;1591917;75;1127;-66
2022/03/17 05:12:22;;;;;;;;;;;24.40;45.50;;;;;;1591641;73;715;-67
2022/03/17 05:14:24;;;;;;;;;;;24.50;45.60;;;;;;1579927;75;685;-67
2022/03/17 05:16:25;;;;;;;;;;;24.40;45.50;;;;;;1591700;74;1937;-68
2022/03/17 05:18:27;;;;;;;;;;;24.50;45.60;;;;;;1591760;73;661;-68
2022/03/17 05:20:29;;;;;;;;;;;24.50;45.50;;;;;;1589074;74;1132;-65
2022/03/17 05:22:31;;;;;;;;;;;24.50;45.50;;;;;;1590863;73;669;-66
2022/03/17 05:24:33;;;;;;;;;;;24.50;45.40;;;;;;1592159;73;671;-65
2022/03/17 05:26:35;;;;;;;;;;;24.50;45.50;;;;;;1597893;73;769;-64
2022/03/17 05:28:37;;;;;;;;;;;24.60;45.50;;;;;;1584987;75;744;-68
2022/03/17 05:30:39;;;;;;;;;;;24.50;45.50;;;;;;1586856;73;1081;-66
2022/03/17 05:32:41;;;;;;;;;;;24.50;45.50;;;;;;1591158;74;797;-65
2022/03/17 05:34:44;;;;;;;;;;;24.50;45.70;;;;;;1591080;73;665;-66
2022/03/17 05:36:46;;;;;;;;;;;24.50;45.70;;;;;;1591675;75;1910;-67
2022/03/17 05:38:48;;;;;;;;;;;24.60;45.70;;;;;;1591753;75;1121;-66
2022/03/17 05:40:50;;;;;;;;;;;24.50;45.70;;;;;;1591985;75;759;-66
2022/03/17 05:42:56;;;;;;;;;;;24.60;45.70;;;;;;1591765;74;701;-67
2022/03/17 05:44:57;;;;;;;;;;;24.50;45.70;;;;;;1590652;73;716;-69
2022/03/17 05:47:00;;;;;;;;;;;24.50;45.60;;;;;;1579639;73;779;-65
2022/03/17 05:49:02;;;;;;;;;;;24.60;45.90;;;;;;1581164;75;1156;-67
2022/03/17 05:51:03;;;;;;;;;;;24.60;45.90;;;;;;1583828;74;769;-68
2022/03/17 05:53:09;;;;;;;;;;;24.60;46.00;;;;;;1583310;75;749;-67
2022/03/17 05:55:12;;;;;;;;;;;24.60;45.90;;;;;;1582719;73;716;-67
2022/03/17 05:57:15;;;;;;;;;;;24.60;46.00;;;;;;1584904;74;1919;-66
2022/03/17 05:59:16;;;;;;;;;;;24.60;46.00;;;;;;1591847;73;1133;-67
2022/03/17 06:01:18;;;;;;;;;;;24.70;45.90;;;;;;1591898;75;739;-67
2022/03/17 06:03:20;;;;;;;;;;;24.80;45.30;;;;;;1590372;75;772;-67
2022/03/17 06:05:23;;;;;;;;;;;25.20;44.60;;;;;;1589762;73;730;-66
2022/03/17 06:07:25;;;;;;;;;;;25.20;44.00;;;;;;1591870;75;711;-68
2022/03/17 06:09:27;;;;;;;;;;;25.30;43.50;;;;;;1591762;74;1196;-70
2022/03/17 06:11:31;;;;;;;;;;;25.40;43.30;;;;;;1591711;73;803;-66
2022/03/17 06:13:33;;;;;;;;;;;25.40;43.00;;;;;;1590352;74;753;-67
2022/03/17 06:15:35;;;;;;;;;;;25.40;42.70;;;;;;1591938;74;792;-71
2022/03/17 06:17:48;;;;;;;;;;;25.40;42.50;;;;;;1591888;73;1945;-71
2022/03/17 06:19:50;;;;;;;;;;;25.50;42.30;;;;;;1590369;74;1742;-68
2022/03/17 06:21:52;;;;;;;;;;;25.40;42.30;;;;;;1590559;73;755;-68
2022/03/17 06:23:54;;;;;;;;;;;25.40;42.30;;;;;;1586818;75;708;-71
2022/03/17 06:25:56;;;;;;;;;;;25.40;42.30;;;;;;1579130;73;734;-69
2022/03/17 06:27:58;;;;;;;;;;;25.40;42.30;;;;;;1591798;74;768;-69
2022/03/17 06:30:00;;;;;;;;;;;25.30;42.40;;;;;;1591705;75;1141;-67
2022/03/17 06:32:02;;;;;;;;;;;25.30;42.30;;;;;;1591321;75;717;-70
2022/03/17 06:34:04;;;;;;;;;;;25.40;42.30;;;;;;1589153;75;767;-68
2022/03/17 06:36:06;;;;;;;;;;;25.30;42.30;;;;;;1591765;74;852;-68
2022/03/17 06:38:08;;;;;;;;;;;25.30;42.30;;;;;;1591839;75;1954;-67
2022/03/17 06:40:10;;;;;;;;;;;25.40;42.20;;;;;;1591771;74;1168;-67
2022/03/17 06:42:12;;;;;;;;;;;25.40;42.00;;;;;;1591855;75;779;-66
2022/03/17 06:44:14;;;;;;;;;;;25.40;41.80;;;;;;1590572;73;708;-66
2022/03/17 06:46:16;;;;;;;;;;;25.50;41.80;;;;;;1591804;74;772;-66
2022/03/17 06:48:18;;;;;;;;;;;25.50;41.60;;;;;;1591811;73;720;-66
2022/03/17 06:50:22;;;;;;;;;;;25.50;41.50;;;;;;1591922;75;1203;-70
2022/03/17 06:52:25;;;;;;;;;;;25.50;41.40;;;;;;1591733;75;630;-66
2022/03/17 06:54:27;;;;;;;;;;;25.40;41.40;;;;;;1588918;75;781;-66
2022/03/17 06:56:29;;;;;;;;;;;25.40;41.30;;;;;;1585323;73;782;-65
2022/03/17 06:58:31;;;;;;;;;;;25.40;41.30;;;;;;1582734;75;752;-66
2022/03/17 07:00:33;;;;;;;;;;;25.40;41.30;;;;;;1582669;75;1165;-66
2022/03/17 07:02:35;;;;;;;;;;;25.50;41.20;;;;;;1581784;75;713;-66
2022/03/17 07:04:37;;;;;;;;;;;25.50;41.10;;;;;;1582687;75;891;-66
2022/03/17 07:06:39;;;;;;;;;;;25.40;41.10;;;;;;1582644;75;671;-66
2022/03/17 07:08:40;;;;;;;;;;;25.40;41.10;;;;;;1584841;75;730;-66
2022/03/17 07:10:42;;;;;;;;;;;25.40;41.10;;;;;;1582568;73;1128;-70
2022/03/17 07:12:46;;;;;;;;;;;25.50;41.00;;;;;;1580340;75;775;-65
2022/03/17 07:14:47;;;;;;;;;;;25.40;41.00;;;;;;1587265;74;705;-67
2022/03/17 07:16:49;;;;;;;;;;;25.40;41.00;;;;;;1591749;74;1931;-65
2022/03/17 07:18:51;;;;;;;;;;;25.40;41.00;;;;;;1591762;73;1096;-67
2022/03/17 07:20:57;;;;;;;;;;;25.40;40.80;;;;;;1590561;75;777;-68
2022/03/17 07:22:57;;;;;;;;;;;25.50;40.80;;;;;;1591228;74;1873;-66
2022/03/17 07:24:58;;;;;;;;;;;25.50;40.70;;;;;;1589570;73;712;-65
2022/03/17 07:27:00;;;;;;;;;;;25.50;40.70;;;;;;1583776;75;794;-65
2022/03/17 07:29:03;;;;;;;;;;;25.50;40.70;;;;;;1587201;75;1136;-65
2022/03/17 07:31:05;;;;;;;;;;;25.50;40.60;;;;;;1591438;75;677;-65
2022/03/17 07:33:06;;;;;;;;;;;25.40;40.60;;;;;;1591742;74;737;-65
2022/03/17 07:35:09;;;;;;;;;;;25.60;40.60;;;;;;1590136;75;766;-65
2022/03/17 07:37:11;;;;;;;;;;;25.50;40.60;;;;;;1587102;75;1933;-65
2022/03/17 07:39:13;;;;;;;;;;;25.50;40.50;;;;;;1587536;75;1379;-65
2022/03/17 07:41:15;;;;;;;;;;;25.60;40.40;;;;;;1591804;75;794;-66
2022/03/17 07:43:17;;;;;;;;;;;25.60;40.40;;;;;;1585771;74;722;-66
2022/03/17 07:45:19;;;;;;;;;;;25.50;40.40;;;;;;1587123;74;794;-65
2022/03/17 07:47:20;;;;;;;;;;;25.50;40.30;;;;;;1591785;74;780;-66
2022/03/17 07:49:22;;;;;;;;;;;25.50;40.30;;;;;;1591612;75;1175;-65
2022/03/17 07:51:24;;;;;;;;;;;25.50;40.30;;;;;;1589581;75;763;-64
2022/03/17 07:53:26;;;;;;;;;;;25.50;40.30;;;;;;1590390;75;692;-65
2022/03/17 07:55:28;;;;;;;;;;;25.50;40.30;;;;;;1591838;73;733;-64
2022/03/17 07:57:30;;;;;;;;;;;25.50;40.20;;;;;;1591971;73;1929;-65
2022/03/17 07:59:32;;;;;;;;;;;25.40;40.20;;;;;;1591885;75;1133;-65
2022/03/17 08:01:34;;;;;;;;;;;25.40;40.20;;;;;;1591797;73;769;-64
2022/03/17 08:03:36;;;;;;;;;;;25.40;40.10;;;;;;1591037;74;731;-66
2022/03/17 08:05:38;;;;;;;;;;;25.40;40.00;;;;;;1587470;74;1168;-69
2022/03/17 08:07:40;;;;;;;;;;;25.40;40.20;;;;;;1592237;73;1022;-64
2022/03/17 08:09:42;;;;;;;;;;;25.50;40.00;;;;;;1593713;73;1185;-65
2022/03/17 08:11:48;;;;;;;;;;;25.40;40.00;;;;;;1584921;73;701;-65
2022/03/17 08:13:47;;;;;;;;;;;25.40;39.90;;;;;;1591310;74;1522;-65
2022/03/17 08:15:49;;;;;;;;;;;25.50;39.90;;;;;;1591924;75;665;-64
2022/03/17 08:17:51;;;;;;;;;;;25.40;39.90;;;;;;1591788;73;1919;-66
2022/03/17 08:19:53;;;;;;;;;;;25.40;39.80;;;;;;1589804;74;1128;-68
2022/03/17 08:21:56;;;;;;;;;;;25.40;39.80;;;;;;1588521;73;680;-65
2022/03/17 08:23:58;;;;;;;;;;;25.40;39.80;;;;;;1590278;75;900;-66
2022/03/17 08:26:00;;;;;;;;;;;25.40;39.80;;;;;;1587158;75;903;-65
2022/03/17 08:28:02;;;;;;;;;;;25.50;39.70;;;;;;1587031;75;797;-66
2022/03/17 08:30:05;;;;;;;;;;;25.50;39.70;;;;;;1591670;74;1148;-65
2022/03/17 08:32:08;;;;;;;;;;;25.50;39.80;;;;;;1591647;75;732;-65
2022/03/17 08:34:10;;;;;;;;;;;25.50;39.80;;;;;;1583087;75;695;-65
2022/03/17 08:36:12;;;;;;;;;;;25.40;39.70;;;;;;1591680;73;725;-66
2022/03/17 08:38:14;;;;;;;;;;;25.50;39.70;;;;;;1591790;74;1937;-67
2022/03/17 08:40:16;;;;;;;;;;;25.50;39.70;;;;;;1591896;73;1159;-65
2022/03/17 08:42:18;;;;;;;;;;;25.40;39.70;;;;;;1590588;74;802;-64
2022/03/17 08:44:20;;;;;;;;;;;25.40;39.60;;;;;;1591837;75;709;-65
2022/03/17 08:51:02;;;;;;;;;;;25.30;39.60;;;;;;1584525;75;1704;-66
2022/03/17 08:53:04;;;;;;;;;;;25.40;39.60;;;;;;1583560;75;722;-66
2022/03/17 08:55:06;;;;;;;;;;;25.40;39.60;;;;;;1582839;73;741;-66
2022/03/17 08:57:08;;;;;;;;;;;25.40;39.60;;;;;;1591983;74;829;-66
2022/03/17 08:59:13;;;;;;;;;;;25.50;39.50;;;;;;1579510;74;1905;-65
2022/03/17 09:01:15;;;;;;;;;;;25.50;39.50;;;;;;1591888;75;745;-66
2022/03/17 09:03:18;;;;;;;;;;;25.40;39.40;;;;;;1583585;75;710;-66
2022/03/17 09:05:20;;;;;;;;;;;25.40;39.40;;;;;;1579883;73;718;-67
2022/03/17 09:07:22;;;;;;;;;;;25.50;39.40;;;;;;1582725;75;739;-68
2022/03/17 09:09:24;;;;;;;;;;;25.50;39.40;;;;;;1579030;75;1182;-67
2022/03/17 09:11:26;;;;;;;;;;;25.40;39.40;;;;;;1584116;73;721;-70
2022/03/17 09:13:29;;;;;;;;;;;25.40;39.40;;;;;;1589886;75;725;-66
2022/03/17 09:15:30;;;;;;;;;;;25.30;39.40;;;;;;1580954;75;822;-66
2022/03/17 09:17:32;;;;;;;;;;;25.40;39.40;;;;;;1582009;75;1929;-70
2022/03/17 09:19:34;;;;;;;;;;;25.30;39.40;;;;;;1591780;75;1131;-66
2022/03/17 09:21:36;;;;;;;;;;;25.30;39.50;;;;;;1589038;75;684;-66
2022/03/17 09:23:38;;;;;;;;;;;25.40;39.40;;;;;;1591834;73;793;-67
2022/03/17 09:25:40;;;;;;;;;;;25.30;39.30;;;;;;1590288;73;780;-65
2022/03/17 09:27:42;;;;;;;;;;;25.40;39.30;;;;;;1590545;74;788;-67
2022/03/17 09:29:44;;;;;;;;;;;25.30;39.20;;;;;;1591432;73;1164;-67
2022/03/17 09:31:46;;;;;;;;;;;25.40;39.30;;;;;;1578285;75;629;-66
2022/03/17 09:33:48;;;;;;;;;;;25.40;39.20;;;;;;1580021;75;803;-67
2022/03/17 09:35:50;;;;;;;;;;;25.40;39.10;;;;;;1591862;75;691;-67
2022/03/17 09:37:52;;;;;;;;;;;25.30;39.10;;;;;;1591636;73;1934;-67
2022/03/17 09:39:54;;;;;;;;;;;25.30;39.00;;;;;;1592325;71;2123;-69
2022/03/17 09:41:56;;;;;;;;;;;25.30;39.00;;;;;;1587589;73;620;-68
2022/03/17 09:43:57;;;;;;;;;;;25.20;39.00;;;;;;1576472;73;726;-68
2022/03/17 09:45:59;;;;;;;;;;;25.20;39.10;;;;;;1572044;73;717;-68
2022/03/17 09:48:01;;;;;;;;;;;25.20;38.80;;;;;;1591473;74;773;-68
2022/03/17 09:50:04;;;;;;;;;;;25.10;39.20;;;;;;1599882;73;1254;-68
2022/03/17 09:52:12;;;;;;;;;;;25.10;39.20;;;;;;1618140;72;770;-68
2022/03/17 09:54:10;;;;;;;;;;;25.10;38.90;;;;;;1608361;72;1682;-68
2022/03/17 09:56:12;;;;;;;;;;;25.00;39.10;;;;;;1601424;73;834;-68
2022/03/17 09:58:13;;;;;;;;;;;25.00;39.20;;;;;;1612671;73;1946;-68
2022/03/17 10:00:16;;;;;;;;;;;24.90;39.10;;;;;;1607918;73;1093;-68
2022/03/17 10:02:18;;;;;;;;;;;24.90;39.30;;;;;;1609437;72;718;-69
2022/03/17 10:04:20;;;;;;;;;;;24.90;39.80;;;;;;1609030;73;774;-69
2022/03/17 10:06:23;;;;;;;;;;;24.90;39.70;;;;;;1609248;73;867;-69
2022/03/17 10:08:25;;;;;;;;;;;25.00;39.50;;;;;;1599924;73;712;-68
2022/03/17 10:10:37;;;;;;;;;;;24.90;39.40;;;;;;1620425;72;1189;-70
2022/03/17 10:12:39;;;;;;;;;;;25.00;39.50;;;;;;1612777;73;686;-69
2022/03/17 10:14:42;;;;;;;;;;;25.00;39.40;;;;;;1619062;72;767;-70
2022/03/17 10:16:44;;;;;;;;;;;25.10;39.20;;;;;;1616576;73;694;-69
2022/03/17 10:18:46;;;;;;;;;;;25.10;39.20;;;;;;1615585;72;1941;-70
2022/03/17 10:20:49;;;;;;;;;;;25.20;39.20;;;;;;1612849;73;1123;-69
2022/03/17 10:22:52;;;;;;;;;;;25.20;39.00;;;;;;1621009;73;756;-74
2022/03/17 10:24:53;;;;;;;;;;;25.30;38.70;;;;;;1617220;72;750;-68
2022/03/17 10:26:57;;;;;;;;;;;25.30;38.70;;;;;;1603132;73;707;-67
2022/03/17 10:29:07;;;;;;;;;;;25.30;38.70;;;;;;1606449;73;1523;-70
2022/03/17 10:31:08;;;;;;;;;;;25.20;38.70;;;;;;1607800;73;784;-68
2022/03/17 10:33:18;;;;;;;;;;;25.20;38.90;;;;;;1614046;73;683;-68
2022/03/17 10:35:38;;;;;;;;;;;25.20;38.80;;;;;;1611236;72;805;-68
2022/03/17 10:37:40;;;;;;;;;;;25.20;38.90;;;;;;1614681;73;752;-68
2022/03/17 10:39:42;;;;;;;;;;;25.20;38.90;;;;;;1620841;72;1909;-67
2022/03/17 10:41:45;;;;;;;;;;;25.20;39.00;;;;;;1620726;72;808;-68
2022/03/17 10:43:47;;;;;;;;;;;25.10;38.90;;;;;;1620945;72;737;-68
2022/03/17 10:45:51;;;;;;;;;;;25.10;38.90;;;;;;1607701;72;658;-67
2022/03/17 10:47:53;;;;;;;;;;;25.10;39.10;;;;;;1608925;73;1070;-68
2022/03/17 10:50:01;;;;;;;;;;;25.20;39.00;;;;;;1596242;73;1158;-68
2022/03/17 10:52:04;;;;;;;;;;;25.10;38.90;;;;;;1616572;73;958;-66
2022/03/17 10:54:07;;;;;;;;;;;25.20;39.00;;;;;;1605738;72;838;-67
2022/03/17 10:56:12;;;;;;;;;;;25.20;39.10;;;;;;1612543;73;1799;-68
2022/03/17 10:58:18;;;;;;;;;;;25.20;39.00;;;;;;1606475;72;1906;-67
2022/03/17 11:00:21;;;;;;;;;;;25.20;39.00;;;;;;1617244;72;1162;-67
2022/03/17 11:02:25;;;;;;;;;;;25.20;38.90;;;;;;1615840;72;980;-67
2022/03/17 11:04:27;;;;;;;;;;;25.30;38.90;;;;;;1621071;73;793;-68
2022/03/17 11:06:29;;;;;;;;;;;25.20;38.80;;;;;;1612114;72;784;-68
2022/03/17 11:08:31;;;;;;;;;;;25.30;38.70;;;;;;1620461;73;734;-67
2022/03/17 11:10:33;;;;;;;;;;;25.30;38.60;;;;;;1599732;72;1172;-67
2022/03/17 11:12:35;;;;;;;;;;;25.40;38.50;;;;;;1619244;72;729;-67
2022/03/17 11:14:41;;;;;;;;;;;25.40;38.40;;;;;;1611730;73;738;-67
2022/03/17 11:16:46;;;;;;;;;;;25.40;38.40;;;;;;1618924;72;694;-68
2022/03/17 11:18:48;;;;;;;;;;;25.30;38.40;;;;;;1605821;72;1921;-68
2022/03/17 11:20:49;;;;;;;;;;;25.40;38.40;;;;;;1621071;73;1145;-68
2022/03/17 11:23:11;;;;;;;;;;;25.40;38.40;;;;;;1612616;72;775;-68
2022/03/17 11:25:18;;;;;;;;;;;25.40;38.40;;;;;;1613811;72;2250;-67
2022/03/17 11:27:22;;;;;;;;;;;25.40;38.40;;;;;;1605176;73;740;-69
2022/03/17 11:29:24;;;;;;;;;;;25.40;38.40;;;;;;1597835;72;1682;-66
2022/03/17 11:31:27;;;;;;;;;;;25.30;38.40;;;;;;1598217;73;780;-68
2022/03/17 11:33:33;;;;;;;;;;;25.30;38.30;;;;;;1608407;73;773;-69
2022/03/17 11:35:36;;;;;;;;;;;25.30;38.40;;;;;;1597896;72;697;-68
2022/03/17 11:37:37;;;;;;;;;;;25.30;38.40;;;;;;1607019;73;755;-69
2022/03/17 11:39:56;;;;;;;;;;;25.30;38.40;;;;;;1606838;73;1949;-70
2022/03/17 11:41:58;;;;;;;;;;;25.40;38.30;;;;;;1611932;72;782;-69
2022/03/17 11:44:01;;;;;;;;;;;25.40;38.30;;;;;;1605086;72;810;-69
2022/03/17 11:46:04;;;;;;;;;;;25.40;38.20;;;;;;1602690;72;880;-68
2022/03/17 11:48:10;;;;;;;;;;;25.30;38.20;;;;;;1610719;72;1654;-69
2022/03/17 11:50:26;;;;;;;;;;;25.30;38.10;;;;;;1613575;72;1173;-69
2022/03/17 11:52:27;;;;;;;;;;;25.30;38.10;;;;;;1606562;73;736;-68
2022/03/17 11:54:30;;;;;;;;;;;25.30;38.30;;;;;;1603471;72;684;-69
2022/03/17 11:56:32;;;;;;;;;;;25.30;38.20;;;;;;1606462;72;726;-67
2022/03/17 11:58:49;;;;;;;;;;;25.30;38.20;;;;;;1613289;73;1940;-69
2022/03/17 12:00:54;;;;;;;;;;;25.40;38.20;;;;;;1610135;73;1251;-69
2022/03/17 12:03:06;;;;;;;;;;;25.30;38.20;;;;;;1613229;72;1607;-69
2022/03/17 12:05:12;;;;;;;;;;;25.40;38.30;;;;;;1600900;73;755;-70
2022/03/17 12:07:14;;;;;;;;;;;25.30;38.20;;;;;;1608249;73;806;-67
2022/03/17 12:09:17;;;;;;;;;;;25.30;38.10;;;;;;1604361;73;1178;-67
2022/03/17 12:11:19;;;;;;;;;;;25.40;38.10;;;;;;1589764;74;1396;-67
2022/03/17 12:13:22;;;;;;;;;;;25.40;38.10;;;;;;1611910;72;742;-67
2022/03/17 12:15:39;;;;;;;;;;;25.30;38.10;;;;;;1604275;73;847;-68
2022/03/17 12:17:40;;;;;;;;;;;25.40;38.10;;;;;;1617281;73;1638;-69
2022/03/17 12:19:52;;;;;;;;;;;25.40;38.10;;;;;;1608138;72;1901;-67
2022/03/17 12:22:01;;;;;;;;;;;25.40;38.00;;;;;;1601439;73;767;-67
2022/03/17 12:24:03;;;;;;;;;;;25.40;38.10;;;;;;1602086;72;761;-67